Time;durP1;ratioP1;P1;durP2;ratioP2;P2;SDS_P1;SDS_P2;PMS_P1;PMS_P2;Temp;Humidity;BMP_temperature;BMP_pressure;BME280_temperature;BME280_humidity;BME280_pressure;Samples;Min_cycle;Max_cycle;Signal;HPM_P1;HPM_P2
2022/04/07 00:06:35;;;;;;;;;0.67;0.67;;;;;12.34;100.00;99410.09;5794277;24;45794;-96
2022/04/07 00:57:40;;;;;;;;;;;;;;;;;;;;;
2022/04/07 02:17:10;;;;;;;;;2.00;1.67;;;;;12.44;100.00;99177.78;6360116;22;45343;-94
2022/04/07 02:20:05;;;;;;;;;0.33;0.33;;;;;12.34;100.00;99168.91;6192767;22;45522;-94
2022/04/07 02:22:33;;;;;;;;;0.33;0.00;;;;;12.40;100.00;99160.19;6209363;22;45610;-95
2022/04/07 02:25:31;;;;;;;;;3.00;1.00;;;;;12.44;100.00;99156.75;6184503;22;46965;-96
2022/04/07 02:28:10;;;;;;;;;1.00;1.00;;;;;12.34;100.00;99131.19;6184444;22;46096;-94
2022/04/07 03:01:16;;;;;;;;;;;;;;;;;;;;;
2022/04/07 03:04:39;;;;;;;;;;;;;;;;;;;;;
2022/04/07 04:47:07;;;;;;;;;;;;;;;;;;;;;
2022/04/07 04:53:27;;;;;;;;;1.00;1.00;;;;;12.09;100.00;98415.53;6243480;22;45478;-95
2022/04/07 04:56:20;;;;;;;;;1.33;1.00;;;;;12.18;100.00;98416.47;6244693;22;45509;-94
2022/04/07 04:58:58;;;;;;;;;2.00;2.00;;;;;12.15;100.00;98407.69;6240990;22;46921;-95
2022/04/07 05:01:24;;;;;;;;;0.33;0.33;;;;;12.12;100.00;98407.66;6240838;22;45359;-93
2022/04/07 05:03:58;;;;;;;;;0.00;0.00;;;;;12.16;100.00;98407.69;6240936;22;45232;-96
2022/04/07 05:06:34;;;;;;;;;;;;;;;;;;;;;
2022/04/07 05:09:38;;;;;;;;;2.00;1.00;;;;;12.09;100.00;98397.13;6239210;22;75219;-95
2022/04/07 05:12:04;;;;;;;;;2.00;0.67;;;;;12.15;100.00;98397.16;6240495;22;45502;-95
2022/04/07 05:14:32;;;;;;;;;2.00;0.33;;;;;12.24;100.00;98412.09;6239664;22;45518;-94
2022/04/07 05:16:58;;;;;;;;;1.00;1.00;;;;;12.19;100.00;98430.47;6241133;22;45591;-94
2022/04/07 05:19:24;;;;;;;;;1.00;1.00;;;;;12.28;100.00;98427.00;6240151;22;47366;-95
2022/04/07 05:21:50;;;;;;;;;1.00;1.00;;;;;12.24;100.00;98428.72;6239942;22;45555;-95
2022/04/07 05:24:17;;;;;;;;;0.67;0.67;;;;;12.23;100.00;98420.84;6241876;22;45414;-93
2022/04/07 05:26:46;;;;;;;;;0.00;0.00;;;;;12.23;100.00;98411.22;6295386;22;45298;-92
2022/04/07 05:29:11;;;;;;;;;0.00;0.00;;;;;12.32;100.00;98430.50;6342221;22;47104;-93
2022/04/07 05:31:37;;;;;;;;;1.67;1.00;;;;;12.26;100.00;98416.47;6341123;22;45424;-94
2022/04/07 05:34:02;;;;;;;;;1.67;0.33;;;;;12.37;100.00;98411.19;6340939;22;45546;-94
2022/04/07 05:36:31;;;;;;;;;0.00;0.00;;;;;12.39;100.00;98390.19;6343347;22;45320;-92
2022/04/07 05:38:58;;;;;;;;;1.00;1.00;;;;;12.35;100.00;98367.34;6341024;22;47932;-94
2022/04/07 05:41:26;;;;;;;;;1.00;1.00;;;;;12.33;100.00;98369.13;6342534;22;45658;-93
2022/04/07 05:43:52;;;;;;;;;2.33;1.00;;;;;12.46;100.00;98389.28;6341925;22;45503;-94
2022/04/07 05:46:17;;;;;;;;;1.00;1.00;;;;;12.45;100.00;98378.75;6342591;22;45431;-93
2022/04/07 05:48:43;;;;;;;;;2.00;1.00;;;;;12.49;100.00;98386.66;6342787;22;47100;-94
2022/04/07 05:51:08;;;;;;;;;0.00;0.00;;;;;12.47;100.00;98384.91;6341521;22;45352;-95
2022/04/07 05:53:39;;;;;;;;;0.33;0.33;;;;;12.48;100.00;98384.91;6340505;22;45462;-94
2022/04/07 05:56:05;;;;;;;;;4.00;1.00;;;;;12.49;100.00;98391.94;6339676;22;45262;-92
2022/04/07 05:58:33;;;;;;;;;1.00;0.00;;;;;12.52;100.00;98418.22;6342329;22;47055;-94
2022/04/07 06:00:59;;;;;;;;;0.67;0.67;;;;;12.50;100.00;98422.59;6343424;22;45330;-94
2022/04/07 06:03:24;;;;;;;;;3.00;2.00;;;;;12.57;100.00;98423.50;6342099;22;45355;-94
2022/04/07 06:05:52;;;;;;;;;1.00;1.00;;;;;12.59;100.00;98427.00;6343087;22;45424;-94
2022/04/07 06:08:19;;;;;;;;;0.33;0.33;;;;;12.65;100.00;98465.59;6344186;22;47148;-94
2022/04/07 06:10:48;;;;;;;;;0.00;0.00;;;;;12.70;100.00;98465.59;6341996;22;45183;-95
2022/04/07 06:13:14;;;;;;;;;0.00;0.00;;;;;12.70;100.00;98444.53;6357873;22;45093;-94
2022/04/07 06:15:40;;;;;;;;;1.00;1.00;;;;;12.69;100.00;98454.19;6369288;22;45145;-94
2022/04/07 06:18:06;;;;;;;;;0.67;0.00;;;;;12.71;100.00;98433.13;6367900;22;47047;-96
2022/04/07 06:20:32;;;;;;;;;0.00;0.00;;;;;12.70;100.00;98420.84;6368004;22;45468;-94
2022/04/07 06:22:58;;;;;;;;;1.00;0.00;;;;;12.74;100.00;98439.28;6350665;22;45283;-94
2022/04/07 06:25:24;;;;;;;;;0.00;0.00;;;;;12.76;100.00;98433.09;6339854;22;45529;-86
2022/04/07 06:27:49;;;;;;;;;1.00;1.00;;;;;12.77;100.00;98433.13;6366315;22;45629;-84
2022/04/07 06:30:17;;;;;;;;;1.00;0.00;;;;;12.81;100.00;98436.63;6366910;22;46495;-84
2022/04/07 06:32:43;;;;;;;;;0.00;0.00;;;;;12.83;100.00;98424.34;6366623;22;45319;-84
2022/04/07 06:35:10;;;;;;;;;0.00;0.00;;;;;12.84;100.00;98383.97;6365757;22;45331;-85
2022/04/07 06:37:53;;;;;;;;;2.00;1.67;;;;;12.83;100.00;98379.59;6364524;22;47324;-84
2022/04/07 06:40:23;;;;;;;;;1.00;1.00;;;;;12.84;100.00;98383.97;6365289;22;45283;-85
2022/04/07 06:42:50;;;;;;;;;0.00;0.00;;;;;12.82;100.00;98351.50;6364687;22;45814;-85
2022/04/07 06:45:15;;;;;;;;;0.00;0.00;;;;;12.83;100.00;98382.22;6365389;22;45375;-86
2022/04/07 06:47:42;;;;;;;;;1.00;1.00;;;;;12.86;100.00;98384.84;6337815;22;47150;-86
2022/04/07 06:50:18;;;;;;;;;0.00;0.00;;;;;12.94;100.00;98396.22;6337726;22;45353;-86
2022/04/07 06:52:44;;;;;;;;;2.00;0.00;;;;;13.01;100.00;98380.44;6338102;22;45377;-84
2022/04/07 06:55:12;;;;;;;;;0.67;0.67;;;;;13.07;100.00;98372.50;6366115;22;45247;-86
2022/04/07 06:57:58;;;;;;;;;0.00;0.00;;;;;13.14;100.00;98384.75;6336820;22;46245;-87
2022/04/07 07:00:26;;;;;;;;;0.00;0.00;;;;;13.14;100.00;98391.81;6365622;22;45413;-86
2022/04/07 07:02:53;;;;;;;;;2.00;0.00;;;;;13.16;100.00;98388.28;6344827;22;45272;-86
2022/04/07 07:05:29;;;;;;;;;1.00;0.00;;;;;13.22;100.00;98392.63;6340425;22;45318;-86
2022/04/07 07:07:56;;;;;;;;;1.00;1.00;;;;;13.27;100.00;98395.28;6337937;22;47083;-87
2022/04/07 07:10:28;;;;;;;;;1.33;0.00;;;;;13.30;100.00;98405.78;6336609;22;45318;-86
2022/04/07 07:12:53;;;;;;;;;0.33;0.33;;;;;13.29;100.00;98389.13;6336239;22;45408;-86
2022/04/07 07:15:23;;;;;;;;;1.00;0.67;;;;;13.39;100.00;98411.03;6363470;22;45193;-86
2022/04/07 07:17:49;;;;;;;;;0.00;0.00;;;;;13.43;100.00;98398.69;6337280;22;46934;-85
2022/04/07 07:20:15;;;;;;;;;1.33;0.00;;;;;13.44;100.00;98379.38;6336590;22;45768;-86
2022/04/07 07:22:42;;;;;;;;;0.00;0.00;;;;;13.50;100.00;98408.34;6365512;22;45445;-85
2022/04/07 07:25:09;;;;;;;;;1.00;0.00;;;;;13.54;100.00;98398.66;6336788;22;45541;-85
2022/04/07 07:27:43;;;;;;;;;0.00;0.00;;;;;13.63;100.00;98397.78;6337698;22;48168;-86
2022/04/07 07:30:10;;;;;;;;;1.00;0.33;;;;;13.67;100.00;98403.91;6336548;22;45862;-89
2022/04/07 07:32:40;;;;;;;;;1.00;0.00;;;;;13.70;100.00;98388.06;6365864;22;45309;-87
2022/04/07 07:35:07;;;;;;;;;0.00;0.00;;;;;13.72;100.00;98405.63;6335994;22;45380;-85
2022/04/07 07:37:32;;;;;;;;;0.00;0.00;;;;;13.83;100.00;98417.88;6363657;22;45379;-86
2022/04/07 07:40:06;;;;;;;;;0.00;0.00;;;;;13.79;100.00;98411.75;6335226;22;45489;-85
2022/04/07 07:42:31;;;;;;;;;0.00;0.00;;;;;13.71;100.00;98403.88;6365603;22;45469;-86
2022/04/07 07:44:57;;;;;;;;;0.00;0.00;;;;;13.78;100.00;98401.22;6335639;22;45402;-85
2022/04/07 07:47:22;;;;;;;;;1.00;1.00;;;;;13.87;100.00;98398.50;6336855;22;48143;-86
2022/04/07 07:49:47;;;;;;;;;0.67;0.00;;;;;14.02;100.00;98383.50;6338011;22;45512;-85
2022/04/07 07:52:13;;;;;;;;;0.67;0.67;;;;;14.17;100.00;98388.63;6337635;22;45252;-85
2022/04/07 07:54:38;;;;;;;;;0.00;0.00;;;;;14.22;100.00;98412.38;6336561;22;45517;-85
2022/04/07 07:57:03;;;;;;;;;0.33;0.33;;;;;14.28;100.00;98417.59;6365337;22;45368;-85
2022/04/07 07:59:29;;;;;;;;;0.00;0.00;;;;;14.38;100.00;98399.06;6335633;22;45407;-85
2022/04/07 08:01:54;;;;;;;;;0.00;0.00;;;;;14.48;100.00;98419.19;6365311;22;46687;-85
2022/04/07 08:04:20;;;;;;;;;0.00;0.00;;;;;14.59;100.00;98410.31;6364961;22;45354;-85
2022/04/07 08:06:45;;;;;;;;;0.00;0.00;;;;;14.73;100.00;98419.00;6363550;22;46375;-85
2022/04/07 08:09:13;;;;;;;;;0.00;0.00;;;;;14.83;100.00;98440.03;6364933;22;45300;-87
2022/04/07 08:11:42;;;;;;;;;2.00;0.33;;;;;14.88;100.00;98440.00;6365426;22;45388;-85
2022/04/07 08:14:08;;;;;;;;;0.00;0.00;;;;;14.93;100.00;98441.72;6363677;22;45309;-86
2022/04/07 08:16:34;;;;;;;;;0.00;0.00;;;;;15.05;100.00;98408.16;6366489;22;46149;-85
2022/04/07 08:19:00;;;;;;;;;0.00;0.00;;;;;15.17;100.00;98413.31;6367383;22;45307;-86
2022/04/07 08:21:26;;;;;;;;;0.00;0.00;;;;;15.25;100.00;98423.78;6365243;22;45319;-86
2022/04/07 08:23:52;;;;;;;;;0.00;0.00;;;;;15.29;100.00;98458.97;6366177;22;45258;-87
2022/04/07 08:26:19;;;;;;;;;0.00;0.00;;;;;15.34;100.00;98440.41;6337847;22;47095;-86
2022/04/07 08:28:44;;;;;;;;;0.00;0.00;;;;;15.40;100.00;98446.50;6364833;22;45327;-86
2022/04/07 08:31:09;;;;;;;;;0.00;0.00;;;;;15.49;100.00;98461.38;6336591;22;45314;-87
2022/04/07 08:33:35;;;;;;;;;0.00;0.00;;;;;15.63;100.00;98481.50;6337314;22;45505;-86
2022/04/07 08:36:00;;;;;;;;;0.00;0.00;;;;;15.75;100.00;98473.41;6336330;22;46017;-86
2022/04/07 08:38:25;;;;;;;;;1.00;0.00;;;;;15.93;100.00;98497.00;6365431;22;45450;-87
2022/04/07 08:40:51;;;;;;;;;0.00;0.00;;;;;15.97;100.00;98512.84;6336548;22;45281;-88
2022/04/07 08:43:17;;;;;;;;;0.00;0.00;;;;;16.11;100.00;98506.50;6337031;22;45326;-86
2022/04/07 08:45:43;;;;;;;;;0.00;0.00;;;;;16.23;100.00;98541.63;6366959;22;45374;-88
2022/04/07 08:48:10;;;;;;;;;0.00;0.00;;;;;16.27;100.00;98519.50;6362429;22;45424;-87
2022/04/07 08:50:39;;;;;;;;;0.00;0.00;;;;;16.37;100.00;98538.78;6339801;22;45259;-86
2022/04/07 08:53:05;;;;;;;;;0.00;0.00;;;;;16.37;100.00;98537.03;6339192;22;45529;-87
2022/04/07 08:55:30;;;;;;;;;0.00;0.00;;;;;16.44;100.00;98544.88;6336208;22;46760;-86
2022/04/07 08:57:57;;;;;;;;;0.00;0.00;;;;;16.53;100.00;98571.22;6364547;22;45518;-88
2022/04/07 09:00:22;;;;;;;;;0.00;0.00;;;;;16.62;100.00;98571.06;6335995;22;45366;-86
2022/04/07 09:02:48;;;;;;;;;0.00;0.00;;;;;16.74;100.00;98596.53;6366367;22;45622;-86
2022/04/07 09:05:13;;;;;;;;;0.00;0.00;;;;;16.80;100.00;98623.84;6366022;22;45941;-87
2022/04/07 09:07:39;;;;;;;;;0.00;0.00;;;;;16.81;100.00;98615.84;6337725;22;45419;-87
2022/04/07 09:10:05;;;;;;;;;0.00;0.00;;;;;16.86;100.00;98621.97;6365989;22;45378;-87
2022/04/07 09:12:33;;;;;;;;;0.00;0.00;;;;;16.93;100.00;98611.28;6366226;22;45368;-87
2022/04/07 09:14:59;;;;;;;;;1.00;0.00;;;;;16.97;100.00;98597.94;6365436;22;45710;-87
2022/04/07 09:17:26;;;;;;;;;0.00;0.00;;;;;17.04;100.00;98613.75;6365507;22;45254;-88
2022/04/07 09:19:53;;;;;;;;;0.00;0.00;;;;;17.19;100.00;98631.19;6336800;22;45371;-87
2022/04/07 09:22:29;;;;;;;;;0.00;0.00;;;;;17.37;100.00;98643.28;6335432;22;45292;-87
2022/04/07 09:24:54;;;;;;;;;0.00;0.00;;;;;17.38;100.00;98662.72;6365512;22;45596;-88
2022/04/07 09:27:19;;;;;;;;;0.00;0.00;;;;;17.37;100.00;98676.91;6336153;22;45439;-87
2022/04/07 09:29:47;;;;;;;;;0.00;0.00;;;;;17.37;100.00;98672.47;6364028;22;45342;-87
2022/04/07 09:32:24;;;;;;;;;0.00;0.00;;;;;17.28;100.00;98664.66;6367206;22;45189;-87
2022/04/07 09:35:00;;;;;;;;;0.00;0.00;;;;;17.18;100.00;98680.72;6365282;22;45687;-86
2022/04/07 09:37:28;;;;;;;;;0.00;0.00;;;;;17.20;100.00;98665.66;6365220;22;45279;-89
2022/04/07 09:40:06;;;;;;;;;0.00;0.00;;;;;17.72;100.00;98696.66;6365893;22;45397;-87
2022/04/07 09:42:33;;;;;;;;;0.00;0.00;;;;;17.41;100.00;98691.84;6365718;22;45272;-86
2022/04/07 09:45:01;;;;;;;;;0.00;0.00;;;;;17.48;100.00;98708.53;6365396;22;45385;-88
2022/04/07 09:47:48;;;;;;;;;0.00;0.00;;;;;17.52;100.00;98708.47;6366869;22;45301;-87
2022/04/07 09:50:28;;;;;;;;;0.00;0.00;;;;;17.37;100.00;98680.41;6337296;22;45292;-87
2022/04/07 09:53:03;;;;;;;;;0.00;0.00;;;;;17.26;100.00;98701.81;6371753;22;45312;-87
2022/04/07 09:55:34;;;;;;;;;1.33;0.00;;;;;17.15;100.00;98686.03;6351265;22;47046;-86
2022/04/07 09:58:01;;;;;;;;;0.00;0.00;;;;;17.15;100.00;98667.47;6384826;22;45187;-87
2022/04/07 10:00:27;;;;;;;;;0.00;0.00;;;;;17.10;100.00;98679.91;6392675;22;44680;-86
2022/04/07 10:02:54;;;;;;;;;0.00;0.00;;;;;16.97;100.00;98663.31;6376794;22;45376;-85
2022/04/07 10:05:21;;;;;;;;;1.00;0.00;;;;;16.73;100.00;98713.97;6337463;22;48343;-86
2022/04/07 10:07:48;;;;;;;;;0.00;0.00;;;;;16.45;100.00;98663.13;6335230;22;45430;-84
2022/04/07 10:10:14;;;;;;;;;1.00;0.00;;;;;16.15;100.00;98644.94;6366539;22;45470;-86
2022/04/07 10:12:40;;;;;;;;;0.00;0.00;;;;;15.96;100.00;98616.00;6337336;22;45320;-86
2022/04/07 10:15:06;;;;;;;;;0.00;0.00;;;;;15.93;100.00;98600.16;6360025;22;45660;-86
2022/04/07 10:17:34;;;;;;;;;0.00;0.00;;;;;15.98;100.00;98604.53;6360712;22;45735;-85
2022/04/07 10:20:05;;;;;;;;;0.67;0.00;;;;;16.02;100.00;98608.03;6364605;22;45652;-86
2022/04/07 10:22:39;;;;;;;;;0.33;0.33;;;;;16.19;100.00;98606.97;6363817;22;45414;-85
2022/04/07 10:25:06;;;;;;;;;0.00;0.00;;;;;16.30;100.00;98588.31;6364303;22;46473;-85
2022/04/07 10:27:45;;;;;;;;;0.00;0.00;;;;;16.41;100.00;98580.22;6363976;22;45486;-85
2022/04/07 10:30:15;;;;;;;;;0.00;0.00;;;;;16.46;100.00;98598.69;6365055;22;45418;-86
2022/04/07 10:32:47;;;;;;;;;0.00;0.00;;;;;16.46;100.00;98627.81;6335542;22;45285;-85
2022/04/07 10:35:33;;;;;;;;;0.33;0.33;;;;;16.50;100.00;98622.44;6364959;22;46697;-86
2022/04/07 10:38:11;;;;;;;;;0.00;0.00;;;;;16.50;100.00;98662.19;6331374;22;45405;-86
2022/04/07 10:40:49;;;;;;;;;0.00;0.00;;;;;16.48;100.00;98663.97;6335996;22;45655;-85
2022/04/07 10:43:14;;;;;;;;;0.00;0.00;;;;;16.47;100.00;98680.75;6366833;22;45323;-84
2022/04/07 10:45:44;;;;;;;;;0.00;0.00;;;;;16.46;100.00;98671.06;6335038;22;47110;-85
2022/04/07 10:49:05;;;;;;;;;0.00;0.00;;;;;16.46;100.00;98683.44;6365571;22;45342;-84
2022/04/07 10:51:47;;;;;;;;;0.00;0.00;;;;;16.57;100.00;98715.06;6355006;22;45592;-86
2022/04/07 10:54:14;;;;;;;;;0.00;0.00;;;;;16.66;100.00;98720.25;6364506;22;45360;-88
2022/04/07 10:56:48;;;;;;;;;0.33;0.00;;;;;16.90;100.00;98742.03;6362597;22;45699;-86
2022/04/07 10:59:40;;;;;;;;;0.00;0.00;;;;;17.10;100.00;98740.88;6361337;22;45264;-85
2022/04/07 11:02:11;;;;;;;;;0.00;0.00;;;;;17.24;100.00;98788.41;6363908;22;45596;-84
2022/04/07 11:05:01;;;;;;;;;0.00;0.00;;;;;17.25;100.00;98792.84;6363591;22;45514;-85
2022/04/07 11:07:34;;;;;;;;;0.00;0.00;;;;;17.13;100.00;98830.97;6363144;22;45239;-86
2022/04/07 11:10:03;;;;;;;;;0.00;0.00;;;;;16.95;100.00;98867.41;6363429;22;45443;-87
2022/04/07 11:12:28;;;;;;;;;1.00;1.00;;;;;16.93;100.00;98841.81;6364318;22;45305;-87
2022/04/07 11:15:13;;;;;;;;;0.00;0.00;;;;;17.05;100.00;98885.84;6362174;22;45400;-85
2022/04/07 11:17:42;;;;;;;;;1.00;0.00;;;;;17.07;100.00;98923.81;6334834;22;46986;-87
2022/04/07 11:20:16;;;;;;;;;0.00;0.00;;;;;17.14;100.00;98965.25;6333233;22;45342;-90
2022/04/07 11:22:57;;;;;;;;;0.00;0.00;;;;;17.27;100.00;98933.34;6332332;22;45451;-86
2022/04/07 11:25:33;;;;;;;;;0.00;0.00;;;;;17.40;100.00;98937.59;6334553;22;45186;-88
2022/04/07 11:28:11;;;;;;;;;0.00;0.00;;;;;17.65;100.00;98939.09;6332303;22;48061;-86
2022/04/07 11:30:53;;;;;;;;;0.00;0.00;;;;;17.91;100.00;98943.13;6333493;22;45508;-87
2022/04/07 11:33:27;;;;;;;;;2.33;0.00;;;;;18.16;100.00;98966.69;6365496;22;45257;-88
2022/04/07 11:35:59;;;;;;;;;0.00;0.00;;;;;18.25;100.00;98991.38;6333448;22;45776;-88
2022/04/07 11:38:45;;;;;;;;;0.33;0.00;;;;;18.29;100.00;99011.69;6334962;22;48181;-88
2022/04/07 11:41:11;;;;;;;;;0.00;0.00;;;;;18.12;100.00;99043.72;6335519;22;45581;-87
2022/04/07 11:43:39;;;;;;;;;0.00;0.00;;;;;18.22;100.00;99047.19;6361669;22;45380;-88
2022/04/07 11:46:05;;;;;;;;;0.00;0.00;;;;;18.34;100.00;99036.41;6336469;22;45364;-88
2022/04/07 11:48:33;;;;;;;;;0.00;0.00;;;;;18.52;100.00;99050.31;6363786;22;45335;-88
2022/04/07 11:51:01;;;;;;;;;2.33;0.00;;;;;18.95;100.00;99061.16;6333295;22;45379;-87
2022/04/07 11:53:28;;;;;;;;;1.67;0.00;;;;;19.49;100.00;99111.69;6364610;22;45463;-86
2022/04/07 11:55:54;;;;;;;;;1.00;1.00;;;;;19.94;100.00;99118.88;6335051;22;45728;-88
2022/04/07 11:58:19;;;;;;;;;1.00;1.00;;;;;20.49;100.00;99111.53;6364460;22;45971;-89
2022/04/07 12:00:46;;;;;;;;;0.33;0.33;;;;;21.00;100.00;99138.84;6335562;22;45667;-87
2022/04/07 12:03:11;;;;;;;;;0.00;0.00;;;;;21.49;100.00;99129.69;6336616;22;45348;-87
2022/04/07 12:05:37;;;;;;;;;1.00;1.00;;;;;22.08;100.00;99112.09;6364814;22;45670;-87
2022/04/07 12:08:06;;;;;;;;;1.00;1.00;;;;;22.52;100.00;99140.19;6330614;22;48644;-87
2022/04/07 12:10:31;;;;;;;;;0.00;0.00;;;;;22.69;100.00;99144.19;6361492;22;45483;-87
2022/04/07 12:12:57;;;;;;;;;0.00;0.00;;;;;22.62;100.00;99161.34;6363798;22;45285;-87
2022/04/07 12:15:22;;;;;;;;;0.00;0.00;;;;;22.23;100.00;99178.50;6362252;22;45433;-86
2022/04/07 12:18:08;;;;;;;;;2.00;2.00;;;;;21.98;100.00;99169.38;6364576;22;45367;-88
2022/04/07 12:20:38;;;;;;;;;1.00;1.00;;;;;21.85;100.00;99175.00;6336124;22;45352;-87
2022/04/07 12:23:10;;;;;;;;;1.00;1.00;;;;;21.84;100.00;99175.06;6335274;22;45478;-87
2022/04/07 12:25:38;;;;;;;;;1.00;1.00;;;;;21.67;100.00;99192.41;6361554;22;45278;-87
2022/04/07 12:28:06;;;;;;;;;0.00;0.00;;;;;21.44;100.00;99204.53;6334219;22;47638;-87
2022/04/07 12:31:01;;;;;;;;;3.00;1.00;;;;;21.06;100.00;99191.19;6364636;22;45328;-87
2022/04/07 12:33:37;;;;;;;;;0.00;0.00;;;;;21.06;100.00;99210.75;6319080;22;45216;-87
2022/04/07 12:36:03;;;;;;;;;1.33;1.00;;;;;21.39;100.00;99209.13;6363790;22;45448;-89
2022/04/07 12:38:28;;;;;;;;;1.00;0.00;;;;;21.61;100.00;99220.13;6365070;22;45674;-88
2022/04/07 12:40:53;;;;;;;;;1.00;1.00;;;;;22.24;100.00;99221.19;6362694;22;45453;-87
2022/04/07 12:43:18;;;;;;;;;1.33;0.00;;;;;22.58;100.00;99242.53;6361782;22;45700;-89
2022/04/07 12:45:57;;;;;;;;;1.00;1.00;;;;;23.32;100.00;99258.19;6333992;22;45535;-87
2022/04/07 12:48:23;;;;;;;;;0.00;0.00;;;;;23.69;100.00;99241.88;6363810;22;46223;-87
2022/04/07 12:50:49;;;;;;;;;0.00;0.00;;;;;23.85;100.00;99274.41;6364425;22;45237;-88
2022/04/07 12:53:33;;;;;;;;;1.00;1.00;;;;;25.08;100.00;99265.59;6364248;22;45291;-89
2022/04/07 12:56:02;;;;;;;;;0.67;0.67;;;;;25.08;100.00;99262.91;6333946;22;45494;-89
2022/04/07 12:58:29;;;;;;;;;3.00;2.00;;;;;24.77;100.00;99269.44;6363407;22;45457;-88
2022/04/07 13:01:02;;;;;;;;;4.00;1.00;;;;;24.29;100.00;99262.22;6364069;22;45320;-87
2022/04/07 13:03:28;;;;;;;;;3.33;1.33;;;;;23.61;100.00;99287.66;6364649;22;45429;-89
2022/04/07 13:05:55;;;;;;;;;1.00;1.00;;;;;22.76;100.00;99297.31;6364526;22;45368;-87
2022/04/07 13:08:20;;;;;;;;;2.00;1.33;;;;;22.02;100.00;99285.91;6364502;22;45714;-88
2022/04/07 13:10:46;;;;;;;;;1.00;1.00;;;;;21.62;100.00;99290.44;6335657;22;45369;-88
2022/04/07 13:13:11;;;;;;;;;1.00;1.00;;;;;21.36;100.00;99294.59;6363566;22;45735;-89
2022/04/07 13:15:37;;;;;;;;;2.33;2.33;;;;;21.43;100.00;99285.50;6364958;22;45739;-88
2022/04/07 13:18:02;;;;;;;;;2.00;2.00;;;;;21.83;100.00;99297.00;6365042;22;45636;-88
2022/04/07 13:20:28;;;;;;;;;1.67;1.67;;;;;21.84;100.00;99284.53;6364772;22;45275;-88
2022/04/07 13:22:54;;;;;;;;;1.00;0.00;;;;;21.77;100.00;99294.50;6335269;22;45397;-88
2022/04/07 13:25:19;;;;;;;;;1.00;1.00;;;;;21.61;100.00;99313.56;6336308;22;45426;-87
2022/04/07 13:27:45;;;;;;;;;3.00;1.00;;;;;21.37;100.00;99307.00;6364586;22;45701;-88
2022/04/07 13:30:12;;;;;;;;;0.67;0.67;;;;;21.20;100.00;99316.28;6365451;22;45486;-88
2022/04/07 13:32:38;;;;;;;;;0.00;0.00;;;;;20.72;100.00;99324.31;6366265;22;45612;-88
2022/04/07 13:35:05;;;;;;;;;1.67;1.67;;;;;20.43;100.00;99326.66;6372134;22;45321;-88
2022/04/07 13:37:30;;;;;;;;;1.00;1.00;;;;;20.91;100.00;99315.06;6370372;22;45729;-88
2022/04/07 13:39:56;;;;;;;;;0.00;0.00;;;;;22.44;100.00;99299.97;6385186;22;45354;-87
2022/04/07 13:42:21;;;;;;;;;2.33;1.67;;;;;22.68;100.00;99323.41;6386008;22;49574;-87
2022/04/07 13:44:46;;;;;;;;;2.00;1.00;;;;;22.39;100.00;99321.47;6336930;22;45627;-87
2022/04/07 13:47:12;;;;;;;;;1.00;0.67;;;;;22.32;100.00;99330.56;6364717;22;46660;-88
2022/04/07 13:49:38;;;;;;;;;2.00;1.00;;;;;22.47;100.00;99347.97;6363149;22;45315;-87
2022/04/07 13:52:03;;;;;;;;;1.50;1.50;;;;;22.61;100.00;99336.94;6364717;22;45379;-87
2022/04/07 13:54:30;;;;;;;;;3.00;0.00;;;;;22.59;100.00;99343.22;6365019;22;45517;-89
2022/04/07 13:56:55;;;;;;;;;2.67;2.00;;;;;22.80;100.00;99340.91;6363428;22;46185;-86
2022/04/07 13:59:21;;;;;;;;;0.00;0.00;;;;;22.54;100.00;99348.72;6334352;22;45639;-86
2022/04/07 14:01:46;;;;;;;;;1.00;1.00;;;;;22.41;100.00;99332.13;6365064;22;45280;-86
2022/04/07 14:04:12;;;;;;;;;2.00;0.00;;;;;22.83;100.00;99340.84;6365043;22;45428;-87
2022/04/07 14:06:38;;;;;;;;;1.67;1.67;;;;;25.23;100.00;99335.72;6362187;22;45483;-85
2022/04/07 14:09:06;;;;;;;;;0.00;0.00;;;;;27.79;100.00;99335.56;6336049;22;45635;-87
2022/04/07 14:11:33;;;;;;;;;3.00;1.67;;;;;29.35;100.00;99355.50;6364985;22;45316;-87
2022/04/07 14:14:00;;;;;;;;;2.00;1.00;;;;;28.64;100.00;99345.72;6336517;22;45872;-88
2022/04/07 14:16:25;;;;;;;;;1.33;1.00;;;;;29.70;100.00;99350.88;6364032;22;45444;-87
2022/04/07 14:18:50;;;;;;;;;0.67;0.00;;;;;29.36;100.00;99342.84;6364438;22;45417;-87
2022/04/07 14:21:17;;;;;;;;;3.67;2.00;;;;;28.56;100.00;99335.34;6364179;22;45379;-87
2022/04/07 14:23:44;;;;;;;;;0.00;0.00;;;;;29.13;100.00;99347.69;6364542;22;45318;-88
2022/04/07 14:26:09;;;;;;;;;0.00;0.00;;;;;29.30;100.00;99360.28;6364135;22;46416;-87
2022/04/07 14:28:34;;;;;;;;;1.00;0.33;;;;;29.61;100.00;99355.84;6364299;22;45303;-87
2022/04/07 14:31:00;;;;;;;;;1.33;0.33;;;;;29.06;100.00;99353.44;6364431;22;45352;-87
2022/04/07 14:33:25;;;;;;;;;0.33;0.33;;;;;29.04;100.00;99362.56;6364684;22;45327;-86
2022/04/07 14:35:50;;;;;;;;;0.33;0.33;;;;;30.03;100.00;99360.72;6362623;22;46411;-88
2022/04/07 14:38:16;;;;;;;;;1.00;1.00;;;;;29.91;100.00;99366.84;6363359;22;45481;-87
2022/04/07 14:40:44;;;;;;;;;0.00;0.00;;;;;31.13;100.00;99367.75;6364527;22;45373;-88
2022/04/07 14:43:10;;;;;;;;;0.33;0.00;;;;;31.68;100.00;99369.69;6364151;22;45299;-87
2022/04/07 14:45:37;;;;;;;;;2.33;1.00;;;;;33.13;100.00;99385.34;6364846;22;46424;-86
2022/04/07 14:48:06;;;;;;;;;0.00;0.00;;;;;34.88;87.34;99359.78;6336288;22;45751;-85
2022/04/07 14:50:34;;;;;;;;;3.00;0.33;;;;;35.82;77.97;99374.09;6366021;22;45495;-86
2022/04/07 14:52:59;;;;;;;;;0.33;0.33;;;;;36.18;77.20;99417.53;6363459;22;45392;-86
2022/04/07 14:55:24;;;;;;;;;0.33;0.00;;;;;34.86;70.22;99397.19;6362707;22;45385;-87
2022/04/07 14:57:50;;;;;;;;;0.00;0.00;;;;;32.88;69.04;99409.69;6361819;22;45619;-88
2022/04/07 15:00:15;;;;;;;;;1.00;0.00;;;;;30.87;69.23;99398.16;6363810;22;45324;-87
2022/04/07 15:02:41;;;;;;;;;2.00;1.00;;;;;28.98;69.12;99415.06;6361049;22;45326;-88
2022/04/07 15:05:06;;;;;;;;;1.00;1.00;;;;;27.42;71.14;99424.44;6363187;22;45212;-87
2022/04/07 15:07:32;;;;;;;;;0.00;0.00;;;;;26.15;73.53;99411.00;6336978;22;45295;-87
2022/04/07 15:09:57;;;;;;;;;0.00;0.00;;;;;24.93;74.92;99424.50;6364071;22;45154;-87
2022/04/07 15:12:22;;;;;;;;;4.00;0.33;;;;;23.91;76.67;99435.88;6364297;22;45256;-86
2022/04/07 15:14:48;;;;;;;;;4.67;2.00;;;;;23.19;78.58;99447.72;6364020;22;45985;-87
2022/04/07 15:17:14;;;;;;;;;2.33;1.00;;;;;22.65;80.77;99448.22;6364913;22;45310;-87
2022/04/07 15:19:40;;;;;;;;;0.33;0.00;;;;;22.18;82.49;99454.75;6364037;22;45311;-90
2022/04/07 15:22:10;;;;;;;;;1.00;1.00;;;;;21.79;83.56;99450.25;6362366;22;45323;-87
2022/04/07 15:24:38;;;;;;;;;0.67;0.67;;;;;21.44;85.33;99458.97;6364410;22;45350;-87
2022/04/07 15:27:05;;;;;;;;;1.67;1.67;;;;;21.08;85.32;99454.31;6364574;22;45370;-87
2022/04/07 15:29:32;;;;;;;;;0.00;0.00;;;;;20.77;87.77;99457.56;6364090;22;45467;-85
2022/04/07 15:31:57;;;;;;;;;4.00;1.00;;;;;20.50;87.89;99457.09;6363941;22;45373;-87
2022/04/07 15:34:22;;;;;;;;;1.00;1.00;;;;;20.23;89.75;99460.19;6359222;22;45323;-87
2022/04/07 15:36:47;;;;;;;;;2.00;1.00;;;;;19.93;91.12;99473.91;6361846;22;52275;-85
2022/04/07 15:39:13;;;;;;;;;1.00;0.00;;;;;19.65;90.14;99464.50;6362539;22;48910;-86
2022/04/07 15:41:38;;;;;;;;;2.00;0.00;;;;;19.40;90.48;99469.25;6363574;22;45528;-86
2022/04/07 15:44:04;;;;;;;;;0.33;0.33;;;;;19.18;92.27;99491.66;6356319;22;45537;-86
2022/04/07 15:46:34;;;;;;;;;1.00;1.00;;;;;18.94;92.40;99493.63;6362184;22;54406;-87
2022/04/07 15:49:00;;;;;;;;;1.33;0.67;;;;;18.68;94.53;99489.44;6361306;22;45376;-85
2022/04/07 15:51:28;;;;;;;;;2.33;1.00;;;;;18.49;94.92;99504.66;6332788;22;45347;-87
2022/04/07 15:53:53;;;;;;;;;2.00;0.67;;;;;18.21;96.23;99497.75;6363564;22;45662;-86
2022/04/07 15:56:19;;;;;;;;;2.00;0.00;;;;;17.97;96.52;99502.28;6362383;22;45309;-86
2022/04/07 15:58:44;;;;;;;;;1.00;0.00;;;;;17.81;97.17;99514.72;6333185;22;45392;-85
2022/04/07 16:01:09;;;;;;;;;1.00;1.00;;;;;17.72;97.75;99515.66;6362818;22;45312;-86
2022/04/07 16:03:35;;;;;;;;;2.00;1.67;;;;;17.52;98.76;99503.38;6363203;22;45973;-85
2022/04/07 16:06:00;;;;;;;;;1.67;0.00;;;;;17.34;99.33;99512.25;6332371;22;45783;-85